Time;durP1;ratioP1;P1;durP2;ratioP2;P2;SDS_P1;SDS_P2;PMS_P1;PMS_P2;Temp;Humidity;BMP_temperature;BMP_pressure;BME280_temperature;BME280_humidity;BME280_pressure;Samples;Min_cycle;Max_cycle;Signal;HPM_P1;HPM_P2
2023/12/12 00:00:30;;;;;;;28.83;24.50;;;;;;;;;;5020608;28;20025;-70
2023/12/12 00:03:01;;;;;;;46.60;38.13;;;;;;;;;;5004792;28;20087;-70
2023/12/12 00:05:27;;;;;;;34.38;27.58;;;;;;;;;;5018157;28;20445;-69
2023/12/12 00:07:52;;;;;;;52.28;41.17;;;;;;;;;;5004192;28;20077;-71
2023/12/12 00:10:17;;;;;;;50.17;37.22;;;;;;;;;;5004377;28;20443;-70
2023/12/12 00:12:43;;;;;;;15.23;12.23;;;;;;;;;;5020507;28;20047;-69
2023/12/12 00:15:09;;;;;;;28.80;23.40;;;;;;;;;;5020215;28;20100;-70
2023/12/12 00:17:34;;;;;;;21.33;18.83;;;;;;;;;;5020214;28;20116;-71
2023/12/12 00:20:00;;;;;;;36.28;30.85;;;;;;;;;;5011258;28;20309;-71
2023/12/12 00:22:25;;;;;;;27.42;22.60;;;;;;;;;;5002271;28;20063;-71
2023/12/12 00:24:51;;;;;;;30.30;23.48;;;;;;;;;;5007254;28;20116;-71
2023/12/12 00:27:16;;;;;;;26.85;22.90;;;;;;;;;;5015669;28;20503;-71
2023/12/12 00:29:41;;;;;;;16.17;12.55;;;;;;;;;;5018566;28;20364;-71
2023/12/12 00:32:07;;;;;;;19.00;16.13;;;;;;;;;;5006991;28;20032;-72
2023/12/12 00:34:36;;;;;;;25.40;20.48;;;;;;;;;;5013128;28;20041;-68
2023/12/12 00:37:01;;;;;;;44.47;33.42;;;;;;;;;;5019184;28;20441;-69
2023/12/12 00:39:26;;;;;;;31.75;24.58;;;;;;;;;;5010074;28;20052;-70
2023/12/12 00:41:52;;;;;;;66.35;48.15;;;;;;;;;;5019318;28;20060;-70
2023/12/12 00:47:39;;;;;;;22.60;16.55;;;;;;;;;;5011405;28;20032;-72
2023/12/12 00:50:05;;;;;;;60.88;46.45;;;;;;;;;;5018139;28;20033;-71
2023/12/12 00:52:30;;;;;;;34.78;28.30;;;;;;;;;;5019980;28;20029;-70
2023/12/12 00:54:57;;;;;;;38.15;31.65;;;;;;;;;;5018733;28;20044;-70
2023/12/12 00:57:22;;;;;;;23.58;18.67;;;;;;;;;;5018367;28;20429;-71
2023/12/12 00:59:48;;;;;;;24.83;19.88;;;;;;;;;;5001718;28;20079;-70
2023/12/12 01:02:13;;;;;;;27.88;22.63;;;;;;;;;;5016912;28;20445;-72
2023/12/12 01:04:38;;;;;;;25.58;22.10;;;;;;;;;;5019171;28;20037;-70
2023/12/12 01:07:04;;;;;;;38.17;31.35;;;;;;;;;;5006526;28;20090;-70
2023/12/12 01:09:29;;;;;;;41.55;31.80;;;;;;;;;;5022974;28;20037;-70
2023/12/12 01:11:54;;;;;;;40.92;31.60;;;;;;;;;;5017457;28;20408;-70
2023/12/12 01:14:23;;;;;;;35.55;30.23;;;;;;;;;;5014718;28;20060;-72
2023/12/12 01:16:48;;;;;;;31.95;24.50;;;;;;;;;;4999714;28;20029;-70
2023/12/12 01:19:13;;;;;;;26.02;22.52;;;;;;;;;;5006688;28;21067;-70
2023/12/12 01:21:39;;;;;;;28.83;23.08;;;;;;;;;;5008085;28;20033;-69
2023/12/12 01:24:04;;;;;;;37.72;30.30;;;;;;;;;;5016699;28;20030;-69
2023/12/12 01:26:29;;;;;;;67.18;53.67;;;;;;;;;;5018614;28;20496;-70
2023/12/12 01:28:55;;;;;;;51.58;40.05;;;;;;;;;;5018234;28;20021;-69
2023/12/12 01:31:20;;;;;;;42.67;34.78;;;;;;;;;;5004388;28;20025;-71
2023/12/12 01:33:46;;;;;;;50.42;36.15;;;;;;;;;;5002752;28;20037;-70
2023/12/12 01:36:12;;;;;;;41.63;31.73;;;;;;;;;;5019135;28;20397;-73
2023/12/12 01:38:37;;;;;;;42.00;33.00;;;;;;;;;;5019010;28;20021;-71
2023/12/12 01:41:03;;;;;;;48.70;32.95;;;;;;;;;;5018869;28;20033;-72
2023/12/12 01:43:29;;;;;;;31.15;22.10;;;;;;;;;;5017532;28;20384;-71
2023/12/12 01:45:56;;;;;;;23.98;17.23;;;;;;;;;;5018842;28;20356;-70
2023/12/12 01:48:37;;;;;;;20.17;15.18;;;;;;;;;;5019165;28;20030;-72
2023/12/12 01:51:04;;;;;;;17.10;13.40;;;;;;;;;;5018321;28;20030;-69
2023/12/12 01:53:30;;;;;;;22.63;18.35;;;;;;;;;;5017923;28;20033;-73
2023/12/12 01:55:57;;;;;;;26.90;21.98;;;;;;;;;;5004541;28;20343;-74
2023/12/12 01:58:24;;;;;;;32.33;22.85;;;;;;;;;;5014355;28;20029;-70
2023/12/12 02:00:49;;;;;;;28.65;22.92;;;;;;;;;;5012404;28;20071;-73
2023/12/12 02:03:15;;;;;;;27.73;23.38;;;;;;;;;;5006413;28;20033;-71
2023/12/12 02:05:41;;;;;;;26.52;21.92;;;;;;;;;;5017773;28;20412;-70
2023/12/12 02:11:00;;;;;;;21.65;18.23;;;;;;;;;;5022161;28;20056;-70
2023/12/12 02:13:25;;;;;;;20.50;16.35;;;;;;;;;;5021676;28;20060;-71
2023/12/12 02:15:51;;;;;;;20.92;18.50;;;;;;;;;;5022544;28;20025;-72
2023/12/12 02:18:16;;;;;;;26.90;21.58;;;;;;;;;;5022324;28;20037;-70
2023/12/12 02:20:44;;;;;;;27.55;21.13;;;;;;;;;;5011480;28;20450;-70
2023/12/12 02:23:10;;;;;;;20.48;15.20;;;;;;;;;;5022366;28;20029;-74
2023/12/12 02:31:23;;;;;;;101.82;77.13;;;;;;;;;;5020997;28;20045;-71
2023/12/12 02:33:49;;;;;;;78.57;60.45;;;;;;;;;;5010648;28;20025;-72
2023/12/12 02:36:15;;;;;;;70.88;54.47;;;;;;;;;;5021940;28;20263;-71
2023/12/12 02:38:40;;;;;;;42.88;33.50;;;;;;;;;;5013021;28;20033;-71
2023/12/12 02:41:06;;;;;;;40.75;30.58;;;;;;;;;;5007858;28;20033;-71
2023/12/12 02:43:31;;;;;;;46.40;37.50;;;;;;;;;;5015530;28;20048;-71
2023/12/12 02:45:56;;;;;;;33.47;25.63;;;;;;;;;;5021492;28;20124;-70
2023/12/12 02:48:22;;;;;;;34.35;26.20;;;;;;;;;;5010704;28;20040;-72
2023/12/12 02:50:47;;;;;;;36.58;29.30;;;;;;;;;;5021022;28;20029;-72
2023/12/12 02:53:12;;;;;;;62.60;49.05;;;;;;;;;;5021119;28;20047;-71
2023/12/12 02:55:38;;;;;;;62.10;45.58;;;;;;;;;;5012814;28;20330;-70
2023/12/12 02:58:03;;;;;;;58.78;46.63;;;;;;;;;;5006641;28;20021;-73
2023/12/12 03:00:28;;;;;;;39.60;32.10;;;;;;;;;;5003384;28;20365;-71
2023/12/12 03:02:54;;;;;;;39.55;29.33;;;;;;;;;;5008568;28;20112;-71
2023/12/12 03:05:19;;;;;;;26.70;20.52;;;;;;;;;;5019056;28;20116;-70
2023/12/12 03:07:44;;;;;;;20.92;16.88;;;;;;;;;;5020677;28;20068;-71
2023/12/12 03:10:10;;;;;;;42.28;34.92;;;;;;;;;;5017157;28;20101;-71
2023/12/12 03:12:35;;;;;;;76.32;61.35;;;;;;;;;;5015556;28;20032;-70
2023/12/12 03:15:00;;;;;;;64.65;49.85;;;;;;;;;;5021048;28;20033;-71
2023/12/12 03:17:26;;;;;;;70.03;51.80;;;;;;;;;;5021554;28;20029;-70
2023/12/12 03:19:51;;;;;;;38.90;30.10;;;;;;;;;;5013348;28;20025;-72
2023/12/12 03:22:16;;;;;;;30.38;23.83;;;;;;;;;;5016479;28;20034;-70
2023/12/12 03:24:42;;;;;;;35.28;26.92;;;;;;;;;;5020681;28;20044;-71
2023/12/12 03:27:08;;;;;;;34.03;26.42;;;;;;;;;;5020621;28;20589;-72
2023/12/12 03:29:34;;;;;;;23.65;18.00;;;;;;;;;;5011003;28;20083;-72
2023/12/12 03:31:59;;;;;;;47.20;39.22;;;;;;;;;;5020742;28;20029;-71
2023/12/12 03:34:24;;;;;;;29.50;25.10;;;;;;;;;;5021086;28;20040;-70
2023/12/12 03:36:50;;;;;;;30.00;21.05;;;;;;;;;;5020611;28;20297;-69
2023/12/12 03:39:15;;;;;;;27.00;22.13;;;;;;;;;;5021062;28;20053;-70
2023/12/12 03:41:41;;;;;;;29.55;23.20;;;;;;;;;;5011741;28;20087;-70
2023/12/12 03:44:06;;;;;;;23.88;18.13;;;;;;;;;;5017218;28;20026;-71
2023/12/12 03:46:32;;;;;;;20.42;15.98;;;;;;;;;;5020357;28;20037;-70
2023/12/12 03:48:57;;;;;;;24.70;20.13;;;;;;;;;;5016420;28;20384;-70
2023/12/12 03:51:23;;;;;;;28.42;23.15;;;;;;;;;;5010389;28;20372;-70
2023/12/12 03:53:48;;;;;;;25.90;21.33;;;;;;;;;;5021506;28;20025;-71
2023/12/12 03:56:13;;;;;;;25.83;22.92;;;;;;;;;;5019684;28;20052;-71
2023/12/12 03:58:39;;;;;;;26.00;21.00;;;;;;;;;;5019304;28;20024;-71
2023/12/12 04:01:06;;;;;;;23.65;18.40;;;;;;;;;;5020153;28;20433;-70
2023/12/12 04:03:32;;;;;;;19.05;15.10;;;;;;;;;;5009548;28;20095;-72
2023/12/12 04:05:57;;;;;;;48.45;33.28;;;;;;;;;;5019870;28;20021;-71
2023/12/12 04:08:23;;;;;;;61.00;42.17;;;;;;;;;;5019800;28;20476;-71
2023/12/12 04:10:48;;;;;;;82.20;52.05;;;;;;;;;;5011095;28;20028;-70
2023/12/12 04:13:13;;;;;;;94.18;62.88;;;;;;;;;;5018173;28;20044;-70
2023/12/12 04:15:39;;;;;;;49.53;37.97;;;;;;;;;;5021622;28;20029;-70
2023/12/12 04:18:04;;;;;;;48.13;34.92;;;;;;;;;;5019712;28;20040;-71
2023/12/12 04:20:30;;;;;;;31.95;24.27;;;;;;;;;;5019326;28;20021;-70
2023/12/12 04:22:55;;;;;;;25.65;19.70;;;;;;;;;;5019969;28;20041;-70
2023/12/12 04:25:20;;;;;;;28.30;21.67;;;;;;;;;;5012801;28;20587;-72
2023/12/12 04:27:46;;;;;;;19.75;17.52;;;;;;;;;;5014951;28;20036;-70
2023/12/12 04:30:11;;;;;;;22.52;18.48;;;;;;;;;;5019082;28;20480;-72
2023/12/12 04:32:37;;;;;;;23.30;18.60;;;;;;;;;;5013054;28;20021;-71
2023/12/12 04:35:05;;;;;;;118.10;70.70;;;;;;;;;;5016738;28;20356;-70
2023/12/12 04:37:30;;;;;;;35.08;27.85;;;;;;;;;;5018810;28;20684;-71
2023/12/12 04:39:55;;;;;;;48.78;36.17;;;;;;;;;;5011172;28;20040;-73
2023/12/12 04:42:21;;;;;;;60.08;45.17;;;;;;;;;;5010817;28;20455;-73
2023/12/12 04:44:46;;;;;;;54.80;45.20;;;;;;;;;;5017687;28;21264;-72
2023/12/12 04:47:13;;;;;;;47.35;34.17;;;;;;;;;;4998841;28;20025;-70
2023/12/12 04:49:38;;;;;;;32.45;24.30;;;;;;;;;;5006205;28;20108;-69
2023/12/12 04:52:04;;;;;;;36.58;27.75;;;;;;;;;;5009775;28;20120;-71
2023/12/12 04:54:29;;;;;;;42.80;33.95;;;;;;;;;;5018000;28;20061;-72
2023/12/12 04:56:54;;;;;;;44.30;34.65;;;;;;;;;;5003137;28;20037;-71
2023/12/12 04:59:20;;;;;;;36.67;27.73;;;;;;;;;;5009463;28;20032;-72
2023/12/12 05:01:45;;;;;;;17.20;14.27;;;;;;;;;;5011519;28;20025;-71
2023/12/12 05:04:10;;;;;;;45.60;36.42;;;;;;;;;;5014400;28;20514;-71
2023/12/12 05:06:36;;;;;;;59.25;49.33;;;;;;;;;;5024029;28;20407;-71
2023/12/12 05:09:01;;;;;;;50.97;40.15;;;;;;;;;;5018852;28;20528;-72
2023/12/12 05:11:27;;;;;;;39.70;29.15;;;;;;;;;;5018832;28;20674;-71
2023/12/12 05:13:52;;;;;;;41.72;35.70;;;;;;;;;;5019654;28;20087;-71
2023/12/12 05:16:18;;;;;;;50.13;38.63;;;;;;;;;;5018982;28;20022;-71
2023/12/12 05:18:44;;;;;;;24.25;20.58;;;;;;;;;;5017144;28;20017;-71
2023/12/12 05:21:11;;;;;;;81.45;47.30;;;;;;;;;;5005990;28;20083;-71
2023/12/12 05:23:36;;;;;;;65.85;39.45;;;;;;;;;;5016350;28;20034;-69
2023/12/12 05:26:01;;;;;;;53.05;37.83;;;;;;;;;;5001427;28;20080;-71
2023/12/12 05:28:27;;;;;;;62.20;46.97;;;;;;;;;;5006575;28;20821;-69
2023/12/12 05:30:52;;;;;;;59.35;44.83;;;;;;;;;;5019022;28;20041;-70
2023/12/12 05:33:18;;;;;;;52.97;41.30;;;;;;;;;;5020076;28;20105;-69
2023/12/12 05:35:44;;;;;;;50.28;40.50;;;;;;;;;;5018470;28;20133;-70
2023/12/12 05:38:09;;;;;;;40.00;33.40;;;;;;;;;;5006525;28;20042;-71
2023/12/12 05:40:35;;;;;;;36.75;29.88;;;;;;;;;;5004964;28;20083;-70
2023/12/12 05:43:00;;;;;;;41.00;33.70;;;;;;;;;;5009067;28;20160;-71
2023/12/12 05:45:26;;;;;;;147.18;109.13;;;;;;;;;;5009276;28;20413;-71
2023/12/12 05:47:51;;;;;;;218.27;172.45;;;;;;;;;;5008799;28;20033;-69
2023/12/12 05:50:16;;;;;;;97.22;77.20;;;;;;;;;;5012346;28;20025;-72
2023/12/12 05:52:42;;;;;;;79.70;59.38;;;;;;;;;;5019504;28;20033;-73
2023/12/12 05:55:08;;;;;;;100.15;68.07;;;;;;;;;;5020843;28;20079;-71
2023/12/12 05:57:34;;;;;;;130.90;93.95;;;;;;;;;;5022073;28;20361;-72
2023/12/12 06:00:00;;;;;;;64.30;48.30;;;;;;;;;;5022297;28;20025;-71
2023/12/12 06:02:25;;;;;;;49.60;40.13;;;;;;;;;;5021965;28;20021;-71
2023/12/12 06:04:51;;;;;;;44.60;35.03;;;;;;;;;;5022313;28;20441;-69
2023/12/12 06:07:17;;;;;;;97.35;85.75;;;;;;;;;;5022842;28;20045;-70
2023/12/12 06:09:42;;;;;;;80.82;69.80;;;;;;;;;;5021511;28;20409;-72
2023/12/12 06:12:07;;;;;;;56.80;47.42;;;;;;;;;;5021935;28;20089;-71
2023/12/12 06:14:33;;;;;;;46.20;41.13;;;;;;;;;;5021626;28;20037;-71
2023/12/12 06:16:58;;;;;;;49.70;43.13;;;;;;;;;;5021423;28;20543;-71
2023/12/12 06:19:24;;;;;;;47.00;38.70;;;;;;;;;;5020793;28;20425;-78
2023/12/12 06:21:52;;;;;;;23.50;18.10;;;;;;;;;;5022654;28;20021;-77
2023/12/12 06:24:17;;;;;;;27.63;23.77;;;;;;;;;;5022634;28;20063;-74
2023/12/12 06:26:42;;;;;;;27.95;22.90;;;;;;;;;;5023000;28;20061;-76
2023/12/12 06:29:09;;;;;;;15.18;13.50;;;;;;;;;;5023367;28;20404;-73
2023/12/12 06:31:34;;;;;;;108.97;97.20;;;;;;;;;;5020999;28;20125;-73
2023/12/12 06:33:59;;;;;;;58.50;50.63;;;;;;;;;;5020357;28;20112;-72
2023/12/12 06:36:25;;;;;;;37.13;27.42;;;;;;;;;;5022183;28;20125;-72
2023/12/12 06:38:50;;;;;;;60.47;53.85;;;;;;;;;;5010822;28;20425;-72
2023/12/12 06:41:15;;;;;;;96.20;75.90;;;;;;;;;;5022210;28;20037;-72
2023/12/12 06:43:42;;;;;;;80.68;58.67;;;;;;;;;;5016814;28;20103;-72
2023/12/12 06:46:08;;;;;;;59.53;47.25;;;;;;;;;;5008306;28;20113;-73
2023/12/12 06:48:33;;;;;;;44.80;35.53;;;;;;;;;;5015699;28;20116;-70
2023/12/12 06:50:59;;;;;;;47.90;38.88;;;;;;;;;;5021505;28;20060;-72
2023/12/12 06:53:24;;;;;;;34.63;26.08;;;;;;;;;;5021391;28;20033;-66
2023/12/12 06:55:50;;;;;;;27.90;23.88;;;;;;;;;;5021626;28;20425;-69
2023/12/12 06:58:18;;;;;;;21.75;19.45;;;;;;;;;;5022654;28;20014;-67
2023/12/12 07:00:43;;;;;;;19.52;15.93;;;;;;;;;;5019928;28;20026;-68
2023/12/12 07:03:12;;;;;;;15.73;13.48;;;;;;;;;;5018673;28;20399;-69
2023/12/12 07:05:37;;;;;;;26.35;23.52;;;;;;;;;;5021710;28;20108;-70
2023/12/12 07:08:03;;;;;;;16.60;14.13;;;;;;;;;;5021622;28;20132;-72
2023/12/12 07:10:29;;;;;;;14.70;13.20;;;;;;;;;;5021924;28;20040;-69
2023/12/12 07:12:55;;;;;;;32.95;29.85;;;;;;;;;;5021905;28;20102;-68
2023/12/12 07:15:21;;;;;;;9.88;8.52;;;;;;;;;;5011291;28;20091;-68
2023/12/12 07:17:47;;;;;;;10.57;8.73;;;;;;;;;;5020825;28;20392;-69
2023/12/12 07:20:12;;;;;;;11.35;8.93;;;;;;;;;;5021451;28;20036;-72
2023/12/12 07:22:38;;;;;;;14.52;10.02;;;;;;;;;;5021419;28;20033;-68
2023/12/12 07:25:04;;;;;;;13.75;10.48;;;;;;;;;;5021980;28;20068;-68
2023/12/12 07:27:29;;;;;;;15.77;14.25;;;;;;;;;;5021771;28;20068;-68
2023/12/12 07:29:54;;;;;;;49.38;45.00;;;;;;;;;;5022272;28;20048;-69
2023/12/12 07:32:20;;;;;;;39.72;35.85;;;;;;;;;;5022259;28;20075;-67
2023/12/12 07:34:45;;;;;;;25.35;22.67;;;;;;;;;;5021711;28;20086;-70
2023/12/12 07:37:10;;;;;;;17.42;15.57;;;;;;;;;;5007688;28;20045;-68
2023/12/12 07:39:36;;;;;;;25.10;21.40;;;;;;;;;;5021743;28;20044;-71
2023/12/12 07:42:01;;;;;;;46.63;38.42;;;;;;;;;;5021565;28;20123;-69
2023/12/12 07:44:27;;;;;;;42.70;38.13;;;;;;;;;;5021432;28;20037;-69
2023/12/12 07:46:52;;;;;;;36.95;31.15;;;;;;;;;;5021054;28;20025;-68
2023/12/12 07:49:18;;;;;;;30.30;26.25;;;;;;;;;;5021624;28;20411;-69
2023/12/12 07:51:43;;;;;;;19.10;13.73;;;;;;;;;;5020788;28;20476;-68
2023/12/12 07:54:09;;;;;;;14.23;10.75;;;;;;;;;;5021316;28;20373;-68
2023/12/12 07:56:35;;;;;;;25.00;22.60;;;;;;;;;;5021201;28;20029;-72
2023/12/12 07:59:00;;;;;;;56.97;50.45;;;;;;;;;;5021239;28;20463;-69
2023/12/12 08:01:26;;;;;;;32.95;28.92;;;;;;;;;;5022082;28;20029;-69
2023/12/12 08:03:52;;;;;;;42.92;30.67;;;;;;;;;;5021559;28;20033;-70
2023/12/12 08:06:18;;;;;;;35.40;24.40;;;;;;;;;;5020340;28;20033;-69
2023/12/12 08:08:43;;;;;;;56.83;43.45;;;;;;;;;;5020930;28;20445;-68
2023/12/12 08:11:13;;;;;;;43.63;33.22;;;;;;;;;;5020471;28;20082;-71
2023/12/12 08:13:38;;;;;;;61.08;51.92;;;;;;;;;;5019751;28;20034;-70
2023/12/12 08:16:04;;;;;;;43.78;34.50;;;;;;;;;;5020886;28;20476;-68
2023/12/12 08:18:30;;;;;;;11.75;10.52;;;;;;;;;;5020729;28;20025;-71
2023/12/12 08:20:55;;;;;;;21.35;18.92;;;;;;;;;;5021400;28;20021;-69
2023/12/12 08:23:21;;;;;;;20.27;15.68;;;;;;;;;;5020993;28;20103;-70
2023/12/12 08:25:47;;;;;;;23.55;17.50;;;;;;;;;;5021077;28;20441;-70
2023/12/12 08:28:13;;;;;;;18.38;16.10;;;;;;;;;;5021015;28;20037;-71
2023/12/12 08:30:38;;;;;;;21.83;19.60;;;;;;;;;;5019945;28;20031;-70
2023/12/12 08:33:04;;;;;;;20.73;18.52;;;;;;;;;;5020257;28;20025;-68
2023/12/12 08:35:29;;;;;;;13.70;12.30;;;;;;;;;;5006071;28;20025;-70
2023/12/12 08:37:54;;;;;;;14.25;10.82;;;;;;;;;;5019251;28;20433;-67
2023/12/12 08:40:20;;;;;;;12.75;11.38;;;;;;;;;;5020115;28;20032;-71
2023/12/12 08:42:45;;;;;;;18.70;14.00;;;;;;;;;;5020241;28;20756;-69
2023/12/12 08:45:11;;;;;;;20.75;18.52;;;;;;;;;;5019511;28;20037;-71
2023/12/12 08:47:36;;;;;;;14.85;12.27;;;;;;;;;;5020779;28;20091;-67
2023/12/12 08:50:03;;;;;;;22.60;20.40;;;;;;;;;;5020685;28;20065;-68
2023/12/12 08:52:29;;;;;;;10.60;8.93;;;;;;;;;;5019570;28;20115;-69
2023/12/12 08:54:56;;;;;;;17.85;15.52;;;;;;;;;;5020916;28;20119;-70
2023/12/12 08:57:21;;;;;;;9.65;8.65;;;;;;;;;;5021277;28;20029;-69
2023/12/12 08:59:47;;;;;;;12.75;11.45;;;;;;;;;;5005323;28;20029;-67
2023/12/12 09:02:12;;;;;;;15.25;13.18;;;;;;;;;;5020521;28;20041;-68
2023/12/12 09:04:37;;;;;;;13.48;11.65;;;;;;;;;;5020415;28;20033;-70
2023/12/12 09:07:03;;;;;;;16.42;13.13;;;;;;;;;;5019115;28;20878;-68
2023/12/12 09:09:31;;;;;;;17.48;15.75;;;;;;;;;;5020815;28;20089;-68
2023/12/12 09:11:56;;;;;;;13.93;10.07;;;;;;;;;;5020519;28;20025;-70
2023/12/12 09:14:22;;;;;;;14.50;11.15;;;;;;;;;;5018914;28;20051;-68
2023/12/12 09:16:47;;;;;;;30.55;27.42;;;;;;;;;;5019664;28;20056;-68
2023/12/12 09:19:15;;;;;;;13.73;12.32;;;;;;;;;;5019230;28;20112;-69
2023/12/12 09:21:41;;;;;;;12.48;10.10;;;;;;;;;;5019768;28;20091;-69
2023/12/12 09:24:06;;;;;;;19.38;15.75;;;;;;;;;;5020208;28;20578;-68
2023/12/12 09:26:32;;;;;;;15.48;12.80;;;;;;;;;;5019974;28;20080;-69
2023/12/12 09:28:57;;;;;;;16.73;14.13;;;;;;;;;;5019860;28;20445;-68
2023/12/12 09:31:26;;;;;;;15.77;13.25;;;;;;;;;;5020478;28;20103;-68
2023/12/12 09:33:51;;;;;;;12.25;10.95;;;;;;;;;;5019727;28;20087;-68
2023/12/12 09:36:17;;;;;;;15.60;11.45;;;;;;;;;;5020183;28;20033;-67
2023/12/12 09:38:42;;;;;;;10.63;9.02;;;;;;;;;;5013261;28;20460;-68
2023/12/12 09:41:14;;;;;;;15.02;13.02;;;;;;;;;;5014012;28;20025;-69
2023/12/12 09:43:40;;;;;;;14.23;11.52;;;;;;;;;;5019578;28;20364;-70
2023/12/12 09:46:06;;;;;;;16.33;14.63;;;;;;;;;;5019760;28;20025;-69
2023/12/12 09:48:32;;;;;;;13.60;11.02;;;;;;;;;;5019065;28;20032;-70
2023/12/12 09:50:58;;;;;;;12.52;11.32;;;;;;;;;;5003866;28;20040;-68
2023/12/12 09:53:25;;;;;;;16.98;12.63;;;;;;;;;;5020102;28;20159;-69
2023/12/12 09:55:51;;;;;;;12.70;10.10;;;;;;;;;;5020329;28;20029;-70
2023/12/12 09:58:17;;;;;;;13.57;11.35;;;;;;;;;;5020845;28;20443;-69
2023/12/12 10:00:42;;;;;;;11.82;8.25;;;;;;;;;;5020572;28;20029;-69
2023/12/12 10:03:07;;;;;;;12.85;8.43;;;;;;;;;;5020453;28;20044;-70
2023/12/12 10:05:35;;;;;;;9.65;6.72;;;;;;;;;;5019885;28;20044;-68
2023/12/12 10:08:03;;;;;;;12.02;5.85;;;;;;;;;;5020356;28;20131;-70
2023/12/12 10:10:28;;;;;;;10.88;7.05;;;;;;;;;;5019621;28;20112;-70
2023/12/12 10:12:53;;;;;;;7.82;5.20;;;;;;;;;;5020851;28;20112;-69
2023/12/12 10:15:23;;;;;;;4.85;4.40;;;;;;;;;;5020282;28;20446;-70
2023/12/12 10:17:48;;;;;;;8.00;7.20;;;;;;;;;;5020002;28;20071;-71
2023/12/12 10:20:22;;;;;;;6.70;6.00;;;;;;;;;;5019214;28;20060;-69
2023/12/12 10:22:47;;;;;;;16.05;13.73;;;;;;;;;;5019249;28;20577;-69
2023/12/12 10:25:15;;;;;;;42.45;38.33;;;;;;;;;;5019859;28;20060;-68
2023/12/12 10:27:42;;;;;;;32.22;28.92;;;;;;;;;;5020012;28;20079;-69
2023/12/12 10:30:08;;;;;;;34.80;29.00;;;;;;;;;;5022921;28;20136;-69
2023/12/12 10:32:36;;;;;;;21.80;19.70;;;;;;;;;;5022541;28;20437;-70
2023/12/12 10:35:01;;;;;;;18.70;16.77;;;;;;;;;;5023679;28;20121;-69
2023/12/12 10:37:27;;;;;;;16.75;15.05;;;;;;;;;;5023268;28;20108;-70
2023/12/12 10:39:52;;;;;;;12.23;11.05;;;;;;;;;;5023164;28;20033;-68
2023/12/12 10:42:17;;;;;;;14.35;12.88;;;;;;;;;;5023674;28;20112;-69
2023/12/12 10:44:46;;;;;;;14.18;12.68;;;;;;;;;;5022981;28;20440;-71
2023/12/12 10:47:13;;;;;;;15.83;14.33;;;;;;;;;;5023504;28;20033;-69
2023/12/12 10:49:41;;;;;;;15.15;13.75;;;;;;;;;;5022826;28;20045;-68
2023/12/12 10:52:08;;;;;;;11.40;9.57;;;;;;;;;;5022824;28;20366;-69
2023/12/12 10:54:35;;;;;;;9.43;8.13;;;;;;;;;;5021955;28;20104;-70
2023/12/12 10:57:01;;;;;;;7.30;4.75;;;;;;;;;;5022341;28;20021;-69
2023/12/12 10:59:27;;;;;;;46.65;31.27;;;;;;;;;;5022223;28;20025;-69
2023/12/12 11:01:53;;;;;;;61.20;40.20;;;;;;;;;;5022181;28;20033;-69
2023/12/12 11:04:20;;;;;;;14.00;10.93;;;;;;;;;;5022587;28;20093;-69
2023/12/12 11:06:46;;;;;;;11.00;9.63;;;;;;;;;;5021799;28;20033;-70
2023/12/12 11:09:13;;;;;;;10.45;6.97;;;;;;;;;;5022243;28;20033;-70
2023/12/12 11:11:43;;;;;;;23.33;18.02;;;;;;;;;;5021961;28;20033;-69
2023/12/12 11:14:09;;;;;;;61.67;54.90;;;;;;;;;;5022269;28;20072;-69
2023/12/12 11:16:34;;;;;;;18.30;13.82;;;;;;;;;;5022183;28;20022;-69
2023/12/12 11:19:01;;;;;;;32.17;20.95;;;;;;;;;;5021833;28;20075;-68
2023/12/12 11:21:48;;;;;;;31.17;20.80;;;;;;;;;;5021883;28;20030;-68
2023/12/12 11:24:14;;;;;;;22.00;16.45;;;;;;;;;;5022419;28;20036;-68
2023/12/12 11:26:44;;;;;;;13.40;10.02;;;;;;;;;;5021776;28;20030;-68
2023/12/12 11:29:10;;;;;;;;;;;;;;;;;;5022709;28;20017;-69
2023/12/12 11:31:35;;;;;;;39.60;29.98;;;;;;;;;;5022093;28;20011;-68
2023/12/12 11:34:05;;;;;;;44.10;39.55;;;;;;;;;;5022580;28;20037;-69
2023/12/12 11:36:50;;;;;;;19.05;15.38;;;;;;;;;;5022346;28;20144;-69
2023/12/12 11:39:49;;;;;;;21.40;18.30;;;;;;;;;;5021844;28;20622;-68
2023/12/12 11:42:21;;;;;;;19.27;16.85;;;;;;;;;;5021119;28;20044;-71
2023/12/12 11:44:54;;;;;;;9.77;8.77;;;;;;;;;;5021913;28;20102;-72
2023/12/12 11:47:21;;;;;;;13.07;8.98;;;;;;;;;;5021868;28;20029;-68
2023/12/12 11:49:47;;;;;;;12.63;8.90;;;;;;;;;;5021174;28;20029;-70
2023/12/12 11:52:32;;;;;;;27.40;19.50;;;;;;;;;;5022239;28;20040;-72
2023/12/12 11:54:57;;;;;;;18.80;13.02;;;;;;;;;;5021449;28;20048;-69
2023/12/12 11:57:23;;;;;;;5.78;5.03;;;;;;;;;;5021989;28;20079;-70
2023/12/12 11:59:48;;;;;;;8.02;7.22;;;;;;;;;;5022036;28;20049;-67
2023/12/12 12:02:13;;;;;;;7.82;6.18;;;;;;;;;;5021738;28;20330;-67
2023/12/12 12:04:39;;;;;;;7.68;6.88;;;;;;;;;;5021655;28;20449;-70
2023/12/12 12:07:04;;;;;;;6.70;6.07;;;;;;;;;;5021749;28;20366;-69
2023/12/12 12:09:29;;;;;;;9.13;6.70;;;;;;;;;;5022486;28;20055;-70
2023/12/12 12:11:55;;;;;;;6.32;5.40;;;;;;;;;;5022025;28;20036;-70
2023/12/12 12:14:21;;;;;;;5.95;5.15;;;;;;;;;;5022026;28;20025;-69
2023/12/12 12:16:47;;;;;;;22.85;17.98;;;;;;;;;;5022108;28;20043;-69
2023/12/12 12:19:28;;;;;;;8.35;6.22;;;;;;;;;;5021726;28;20365;-70
2023/12/12 12:21:54;;;;;;;6.93;5.28;;;;;;;;;;5021021;28;20022;-70
2023/12/12 12:24:19;;;;;;;9.27;8.18;;;;;;;;;;5020596;28;20052;-69
2023/12/12 12:26:46;;;;;;;6.50;4.57;;;;;;;;;;5021231;28;20037;-70
2023/12/12 12:29:11;;;;;;;9.65;7.93;;;;;;;;;;5021150;28;20022;-69
2023/12/12 12:31:38;;;;;;;10.43;9.27;;;;;;;;;;5021104;28;20032;-69
2023/12/12 12:34:15;;;;;;;6.53;5.85;;;;;;;;;;5020410;28;20144;-69
2023/12/12 12:36:42;;;;;;;14.50;12.05;;;;;;;;;;5021020;28;20032;-68
2023/12/12 12:39:09;;;;;;;11.15;9.63;;;;;;;;;;5020876;28;20063;-69
2023/12/12 12:41:35;;;;;;;7.18;6.57;;;;;;;;;;5021369;28;20133;-67
2023/12/12 12:44:00;;;;;;;19.02;16.02;;;;;;;;;;5021554;28;21089;-69
2023/12/12 12:46:25;;;;;;;39.25;22.80;;;;;;;;;;5020747;28;20094;-69
2023/12/12 12:48:51;;;;;;;20.77;17.33;;;;;;;;;;5021286;28;20059;-68
2023/12/12 12:51:16;;;;;;;5.43;3.92;;;;;;;;;;5020477;28;20414;-68
2023/12/12 12:53:41;;;;;;;4.03;3.47;;;;;;;;;;5020976;28;20069;-68
2023/12/12 12:56:07;;;;;;;4.80;4.20;;;;;;;;;;5020947;28;20340;-69
2023/12/12 12:58:33;;;;;;;7.55;6.65;;;;;;;;;;5020751;28;20078;-72
2023/12/12 13:00:59;;;;;;;6.90;4.45;;;;;;;;;;5020652;28;20014;-72
2023/12/12 13:03:25;;;;;;;3.20;2.88;;;;;;;;;;5020568;28;20048;-70
2023/12/12 13:05:50;;;;;;;4.65;3.95;;;;;;;;;;5019972;28;20341;-70
2023/12/12 13:08:17;;;;;;;10.15;9.10;;;;;;;;;;5007938;28;20115;-68
2023/12/12 13:10:42;;;;;;;6.90;4.97;;;;;;;;;;5021228;28;20029;-69
2023/12/12 13:13:07;;;;;;;6.50;5.90;;;;;;;;;;5020487;28;20182;-68
2023/12/12 13:15:33;;;;;;;4.55;3.92;;;;;;;;;;5020205;28;20029;-71
2023/12/12 13:17:58;;;;;;;14.52;10.55;;;;;;;;;;5019662;28;20028;-68
2023/12/12 13:20:23;;;;;;;31.52;28.08;;;;;;;;;;5025375;28;20025;-70
2023/12/12 13:22:49;;;;;;;12.10;8.88;;;;;;;;;;5010517;28;20678;-69
2023/12/12 13:25:14;;;;;;;11.50;9.80;;;;;;;;;;5020964;28;20396;-69
2023/12/12 13:27:40;;;;;;;10.07;9.07;;;;;;;;;;5020832;28;20379;-67
2023/12/12 13:30:09;;;;;;;6.55;5.95;;;;;;;;;;5020821;28;20441;-69
2023/12/12 13:32:35;;;;;;;6.55;5.95;;;;;;;;;;5020296;28;20064;-70
2023/12/12 13:35:01;;;;;;;12.00;9.98;;;;;;;;;;5021099;28;20029;-68
2023/12/12 13:37:26;;;;;;;33.67;26.65;;;;;;;;;;5020206;28;20902;-69
2023/12/12 13:39:51;;;;;;;6.85;6.15;;;;;;;;;;5020366;28;20126;-69
2023/12/12 13:42:17;;;;;;;13.85;12.35;;;;;;;;;;5019679;28;20030;-69
2023/12/12 13:44:42;;;;;;;21.90;17.50;;;;;;;;;;5019888;28;20030;-68
2023/12/12 13:47:07;;;;;;;18.70;15.07;;;;;;;;;;5020004;28;20032;-69
2023/12/12 13:49:33;;;;;;;20.35;17.17;;;;;;;;;;5020176;28;20026;-70
2023/12/12 13:51:58;;;;;;;26.42;20.02;;;;;;;;;;5019279;28;20025;-69
2023/12/12 13:54:24;;;;;;;19.00;15.95;;;;;;;;;;5020323;28;20021;-68
2023/12/12 13:56:50;;;;;;;32.35;23.58;;;;;;;;;;5020521;28;20017;-68
2023/12/12 13:59:16;;;;;;;27.67;22.33;;;;;;;;;;5020128;28;20073;-67
2023/12/12 14:01:41;;;;;;;15.70;10.15;;;;;;;;;;5019642;28;20065;-67
2023/12/12 14:04:07;;;;;;;39.95;31.45;;;;;;;;;;5022685;28;20353;-70
2023/12/12 14:06:33;;;;;;;106.05;88.05;;;;;;;;;;5024054;28;20449;-66
2023/12/12 14:08:58;;;;;;;27.38;22.17;;;;;;;;;;5023685;28;20353;-67
2023/12/12 14:11:24;;;;;;;22.17;17.45;;;;;;;;;;5023639;28;20083;-71
2023/12/12 14:13:53;;;;;;;19.63;14.43;;;;;;;;;;5023885;28;20036;-68
2023/12/12 14:16:18;;;;;;;16.27;13.68;;;;;;;;;;5023015;28;20029;-70
2023/12/12 14:18:43;;;;;;;17.98;16.17;;;;;;;;;;5023829;28;20038;-68
2023/12/12 14:21:12;;;;;;;63.70;41.88;;;;;;;;;;5015625;28;21247;-71
2023/12/12 14:23:38;;;;;;;48.60;33.72;;;;;;;;;;5008288;28;20392;-67
2023/12/12 14:26:03;;;;;;;46.65;30.52;;;;;;;;;;5008864;28;20423;-69